Nearby METAR Reports

 

K1V6 - Canon City, Colorado, USA
Distance from station: NE 34mi, 55km
Updated: 10/03/2022 3:15pm MDT
Clear
Clear
 Wind from ESE
Wind: ESE 9 mph , 15 km/h
Temperature: 77°F , 25°C
Dew Point: 36°F , 2°C
Humidity: 22%
Barometer: 30.13 inHg , 1020.3 hPa
Clouds: Clear
Visibility: 10 miles , 16 km
2022/10/03 21:15 K1V6 032115Z AUTO 12008KT 10SM CLR 25/02 A3013 RMK AO2 LTG DSNT S
K04V - Saguache Muni, Colorado, USA
Distance from station: W 35mi, 56km
Updated: 10/03/2022 3:15pm MDT
Partly cloudy
Partly cloudy
 Wind from SE
Wind: SE 6 mph , 9 km/h
Temperature: 57°F , 14°C
Dew Point: 43°F , 6°C
Humidity: 59%
Barometer: 30.31 inHg , 1026.4 hPa
Clouds: Partly cloudy
Visibility: 10 miles , 16 km
Cloud details: Partly cloudy 9000 ft
2022/10/03 21:15 K04V 032115Z AUTO 13005KT 10SM SCT090 14/06 A3031 RMK AO2 LTG DSNT S
 
KANK - Salida, Colorado, USA
Distance from station: NW 43mi, 69km
Updated: 10/03/2022 3:10pm MDT
Overcast
Overcast
 Wind from calm
Wind: Calm
Temperature: 64°F , 18°C
Dew Point: 34°F , 1°C
Humidity: 32%
Barometer: 30.33 inHg , 1027.1 hPa
Clouds: Overcast
Visibility: 10 miles , 16 km
Cloud details: Overcast 10000 ft
2022/10/03 21:10 KANK 032110Z AUTO 00000KT 10SM OVC100 18/01 A3033 RMK AO1 T01810006
KVTP - La Veta Pass, Colorado, USA
Distance from station: SSE 44mi, 71km
Updated: 10/03/2022 3:15pm MDT
Overcast
Overcast
 Wind from W
Wind: W 7 mph , 11 km/h
Temperature: 46°F , 8°C
Wind Chill: 42°F , 6°C
Dew Point: 30°F , -1°C
Humidity: 53%
Barometer: 30.42 inHg , 1030.1 hPa
Clouds: Overcast
Visibility: 10 miles , 16 km
Cloud details: Partly cloudy 4700 ft
Overcast 6000 ft
2022/10/03 21:15 KVTP 032115Z AUTO 27006KT 10SM SCT047 OVC060 08/M01 A3042 RMK AO2
 
KALS - Alamosa, Colorado, USA
Distance from station: SSW 48mi, 77km
Updated: 10/03/2022 2:52pm MDT
Clear
Clear
 Wind from NW
Wind: NW 5 mph , 7 km/h
Temperature: 61°F , 16°C
Dew Point: 43°F , 6°C
Humidity: 52%
Barometer: 30.30 inHg , 1026.1 hPa
Clouds: Clear
Visibility: 10 miles , 16 km
2022/10/03 20:52 KALS 032052Z AUTO 32004KT 10SM CLR 16/06 A3030 RMK AO2 SLP194 T01610061 58022